Time,TemperatureF,DewpointF,PressureIn,WindDirection,WindDirectionDegrees,WindSpeedMPH,WindSpeedGustMPH,Humidity,HourlyPrecipIn,Conditions,Clouds,dailyrainin,SoftwareType,DateUTC
2013-07-04 00:00:00,75.9,72.4,0.00,SE,130,0.0,4.0,89,0.00,,,0.00,Weather View 32 v70,2013-07-04 04:00:00,
2013-07-04 00:15:00,75.7,72.6,0.00,SE,130,0.0,4.0,90,0.00,,,0.00,Weather View 32 v70,2013-07-04 04:15:00,
2013-07-04 00:30:00,75.6,72.7,0.00,SW,214,0.0,0.0,91,0.00,,,0.00,Weather View 32 v70,2013-07-04 04:30:00,
2013-07-04 00:45:00,75.4,72.9,0.00,South,183,0.0,2.0,92,0.00,,,0.00,Weather View 32 v70,2013-07-04 04:45:00,
2013-07-04 01:00:00,75.4,72.9,0.00,SW,226,0.0,4.0,92,0.00,,,0.00,Weather View 32 v70,2013-07-04 05:00:00,
2013-07-04 01:15:00,75.2,72.7,0.00,SW,226,0.0,4.0,92,0.00,,,0.00,Weather View 32 v70,2013-07-04 05:15:00,
2013-07-04 01:30:00,75.2,72.7,0.00,South,191,0.0,4.0,92,0.00,,,0.00,Weather View 32 v70,2013-07-04 05:30:00,
2013-07-04 01:45:00,75.0,72.8,0.00,South,191,0.0,4.0,93,0.00,,,0.00,Weather View 32 v70,2013-07-04 05:45:00,
2013-07-04 02:00:00,74.8,72.7,0.00,South,175,0.0,3.0,93,0.00,,,0.00,Weather View 32 v70,2013-07-04 06:00:00,
2013-07-04 02:15:00,74.8,72.7,0.00,South,175,0.0,3.0,93,0.00,,,0.00,Weather View 32 v70,2013-07-04 06:15:00,
2013-07-04 02:30:00,74.7,72.8,0.00,South,175,0.0,3.0,94,0.00,,,0.00,Weather View 32 v70,2013-07-04 06:30:00,
2013-07-04 02:45:00,74.5,72.6,0.00,South,175,0.0,3.0,94,0.00,,,0.00,Weather View 32 v70,2013-07-04 06:45:00,
2013-07-04 03:00:00,74.3,72.8,0.00,South,175,0.0,0.0,95,0.00,,,0.00,Weather View 32 v70,2013-07-04 07:00:00,
2013-07-04 03:15:00,74.1,72.6,0.00,SSE,168,0.0,4.0,95,0.00,,,0.00,Weather View 32 v70,2013-07-04 07:15:00,
2013-07-04 03:30:00,74.1,72.6,0.00,SSE,156,0.0,4.0,95,0.00,,,0.00,Weather View 32 v70,2013-07-04 07:30:00,
2013-07-04 03:45:00,73.9,72.7,0.00,SSE,156,0.0,4.0,96,0.00,,,0.00,Weather View 32 v70,2013-07-04 07:45:00,
2013-07-04 04:00:00,73.9,72.7,0.00,SE,133,0.0,4.0,96,0.00,,,0.00,Weather View 32 v70,2013-07-04 08:00:00,
2013-07-04 04:15:00,73.9,73.0,0.00,ESE,108,0.0,3.0,97,0.00,,,0.00,Weather View 32 v70,2013-07-04 08:15:00,
2013-07-04 04:30:00,73.8,72.9,0.00,ESE,108,0.0,3.0,97,0.00,,,0.00,Weather View 32 v70,2013-07-04 08:30:00,
2013-07-04 04:45:00,73.8,73.2,0.00,ESE,108,0.0,3.0,98,0.00,,,0.00,Weather View 32 v70,2013-07-04 08:45:00,
2013-07-04 05:00:00,73.6,73.0,0.00,North,357,0.0,3.0,98,0.00,,,0.00,Weather View 32 v70,2013-07-04 09:00:00,
2013-07-04 05:15:00,73.4,72.8,0.00,East,92,0.0,3.0,98,0.00,,,0.00,Weather View 32 v70,2013-07-04 09:15:00,
2013-07-04 05:30:00,73.4,72.8,0.00,NW,314,0.0,3.0,98,0.00,,,0.00,Weather View 32 v70,2013-07-04 09:30:00,
2013-07-04 05:45:00,73.2,72.6,0.00,NW,305,0.0,3.0,98,0.00,,,0.00,Weather View 32 v70,2013-07-04 09:45:00,
2013-07-04 06:00:00,73.4,72.8,0.00,SSE,155,0.0,3.0,98,0.00,,,0.00,Weather View 32 v70,2013-07-04 10:00:00,
2013-07-04 06:15:00,73.6,73.0,0.00,SSE,158,0.0,4.0,98,0.00,,,0.00,Weather View 32 v70,2013-07-04 10:15:00,
2013-07-04 06:30:00,73.8,73.2,0.00,SSE,158,0.0,4.0,98,0.00,,,0.00,Weather View 32 v70,2013-07-04 10:30:00,
2013-07-04 06:45:00,73.9,73.3,0.00,SSE,158,0.0,4.0,98,0.00,,,0.00,Weather View 32 v70,2013-07-04 10:45:00,
2013-07-04 07:00:00,74.1,73.5,0.00,SSE,158,0.0,4.0,98,0.00,,,0.00,Weather View 32 v70,2013-07-04 11:00:00,
2013-07-04 07:15:00,74.1,72.9,0.00,WSW,257,3.0,4.0,96,0.00,,,0.00,Weather View 32 v70,2013-07-04 11:15:00,
2013-07-04 07:30:00,74.7,71.5,0.00,SSW,203,0.0,5.0,90,0.00,,,0.00,Weather View 32 v70,2013-07-04 11:30:00,
2013-07-04 07:45:00,75.4,70.9,0.00,SSW,204,0.0,5.0,86,0.00,,,0.00,Weather View 32 v70,2013-07-04 11:45:00,
2013-07-04 08:00:00,75.7,70.9,0.00,South,190,0.0,5.0,85,0.00,,,0.00,Weather View 32 v70,2013-07-04 12:00:00,
2013-07-04 08:15:00,76.1,69.8,0.00,West,268,0.0,6.0,81,0.00,,,0.00,Weather View 32 v70,2013-07-04 12:15:00,
2013-07-04 08:30:00,76.8,69.0,0.00,SW,230,0.0,8.0,77,0.00,,,0.00,Weather View 32 v70,2013-07-04 12:30:00,
2013-07-04 08:45:00,77.7,68.3,0.00,WNW,292,3.0,8.0,73,0.00,,,0.00,Weather View 32 v70,2013-07-04 12:45:00,
2013-07-04 09:00:00,79.3,67.4,0.00,SW,214,0.0,8.0,67,0.00,,,0.00,Weather View 32 v70,2013-07-04 13:00:00,
2013-07-04 09:15:00,80.8,67.4,0.00,NE,46,2.0,8.0,64,0.00,,,0.00,Weather View 32 v70,2013-07-04 13:15:00,
2013-07-04 09:20:00,80.8,67.4,0.00,NE,46,2.0,8.0,64,0.00,,,0.00,Weather View 32 v70,2013-07-04 13:20:00,
2013-07-04 09:30:00,81.1,66.8,0.00,SW,236,2.0,6.0,62,0.00,,,0.00,Weather View 32 v70,2013-07-04 13:30:00,
2013-07-04 09:45:00,82.0,66.2,0.00,WNW,283,0.0,6.0,59,0.00,,,0.00,Weather View 32 v70,2013-07-04 13:45:00,
2013-07-04 10:00:00,82.6,66.7,0.00,SSE,156,4.0,6.0,59,0.00,,,0.00,Weather View 32 v70,2013-07-04 14:00:00,
2013-07-04 10:15:00,82.6,65.7,0.00,WNW,300,4.0,8.0,57,0.00,,,0.00,Weather View 32 v70,2013-07-04 14:15:00,
2013-07-04 10:21:00,82.6,65.7,0.00,WNW,300,4.0,8.0,57,0.00,,,0.00,Weather View 32 v70,2013-07-04 14:21:00,
2013-07-04 10:30:00,82.4,64.0,0.00,West,279,5.0,8.0,54,0.00,,,0.00,Weather View 32 v70,2013-07-04 14:30:00,
2013-07-04 10:45:00,82.2,65.9,0.00,West,270,4.0,8.0,58,0.00,,,0.00,Weather View 32 v70,2013-07-04 14:45:00,
2013-07-04 11:00:00,81.7,63.4,0.00,WSW,247,3.0,8.0,54,0.00,,,0.00,Weather View 32 v70,2013-07-04 15:00:00,
2013-07-04 11:15:00,82.2,63.9,0.00,South,190,3.0,8.0,54,0.00,,,0.00,Weather View 32 v70,2013-07-04 15:15:00,
2013-07-04 11:21:00,82.2,63.9,0.00,South,190,3.0,8.0,54,0.00,,,0.00,Weather View 32 v70,2013-07-04 15:21:00,
2013-07-04 11:30:00,83.1,65.7,0.00,SW,232,5.0,8.0,56,0.00,,,0.00,Weather View 32 v70,2013-07-04 15:30:00,
2013-07-04 11:45:00,83.3,63.2,0.00,WSW,256,3.0,8.0,51,0.00,,,0.00,Weather View 32 v70,2013-07-04 15:45:00,
2013-07-04 12:00:00,83.7,65.2,0.00,SW,214,4.0,8.0,54,0.00,,,0.00,Weather View 32 v70,2013-07-04 16:00:00,
2013-07-04 12:15:00,83.7,63.5,0.00,WNW,284,3.0,8.0,51,0.00,,,0.00,Weather View 32 v70,2013-07-04 16:15:00,
2013-07-04 12:22:00,83.7,63.5,0.00,WNW,284,3.0,8.0,51,0.00,,,0.00,Weather View 32 v70,2013-07-04 16:22:00,
2013-07-04 12:30:00,84.9,63.6,0.00,SSW,197,3.0,8.0,49,0.00,,,0.00,Weather View 32 v70,2013-07-04 16:30:00,
2013-07-04 12:45:00,85.5,63.5,0.00,SW,230,3.0,8.0,48,0.00,,,0.00,Weather View 32 v70,2013-07-04 16:45:00,
2013-07-04 13:00:00,84.9,61.1,0.00,WSW,252,0.0,8.0,45,0.00,,,0.00,Weather View 32 v70,2013-07-04 17:00:00,
2013-07-04 13:15:00,85.3,63.9,0.00,West,265,2.0,8.0,49,0.00,,,0.00,Weather View 32 v70,2013-07-04 17:15:00,
2013-07-04 13:23:00,85.3,63.9,0.00,West,265,2.0,8.0,49,0.00,,,0.00,Weather View 32 v70,2013-07-04 17:23:00,
2013-07-04 13:30:00,85.5,64.6,0.00,WSW,254,0.0,8.0,50,0.00,,,0.00,Weather View 32 v70,2013-07-04 17:30:00,
2013-07-04 13:45:00,84.7,62.8,0.00,WSW,241,3.0,8.0,48,0.00,,,0.00,Weather View 32 v70,2013-07-04 17:45:00,
2013-07-04 14:00:00,85.8,61.9,0.00,WSW,237,4.0,8.0,45,0.00,,,0.00,Weather View 32 v70,2013-07-04 18:00:00,
2013-07-04 14:15:00,86.2,62.3,0.00,West,273,6.0,9.0,45,0.00,,,0.00,Weather View 32 v70,2013-07-04 18:15:00,
2013-07-04 14:23:00,86.2,62.3,0.00,West,273,6.0,9.0,45,0.00,,,0.00,Weather View 32 v70,2013-07-04 18:23:00,
2013-07-04 14:30:00,86.2,62.3,0.00,West,262,3.0,9.0,45,0.00,,,0.00,Weather View 32 v70,2013-07-04 18:30:00,
2013-07-04 14:45:00,85.6,61.1,0.00,NW,306,4.0,9.0,44,0.00,,,0.00,Weather View 32 v70,2013-07-04 18:45:00,
2013-07-04 15:00:00,86.2,62.9,0.00,WSW,244,2.0,10.0,46,0.00,,,0.00,Weather View 32 v70,2013-07-04 19:00:00,
2013-07-04 15:15:00,87.1,63.1,0.00,West,261,3.0,10.0,45,0.00,,,0.00,Weather View 32 v70,2013-07-04 19:15:00,
2013-07-04 15:24:00,87.1,63.1,0.00,West,261,3.0,10.0,45,0.00,,,0.00,Weather View 32 v70,2013-07-04 19:24:00,
2013-07-04 15:30:00,87.3,61.9,0.00,SSE,155,3.0,10.0,43,0.00,,,0.00,Weather View 32 v70,2013-07-04 19:30:00,
2013-07-04 15:45:00,88.0,63.2,0.00,SSE,167,4.0,10.0,44,0.00,,,0.00,Weather View 32 v70,2013-07-04 19:45:00,
2013-07-04 16:00:00,87.8,60.4,0.00,West,264,4.0,10.0,40,0.00,,,0.00,Weather View 32 v70,2013-07-04 20:00:00,
2013-07-04 16:15:00,88.2,61.4,0.00,SSW,213,3.0,10.0,41,0.00,,,0.00,Weather View 32 v70,2013-07-04 20:15:00,
2013-07-04 16:24:00,88.2,61.4,0.00,SSW,213,3.0,10.0,41,0.00,,,0.00,Weather View 32 v70,2013-07-04 20:24:00,
2013-07-04 16:30:00,87.3,61.9,0.00,SW,225,0.0,10.0,43,0.00,,,0.00,Weather View 32 v70,2013-07-04 20:30:00,
2013-07-04 16:45:00,86.7,63.4,0.00,SSW,210,3.0,10.0,46,0.00,,,0.00,Weather View 32 v70,2013-07-04 20:45:00,
2013-07-04 17:00:00,86.5,62.0,0.00,SW,223,4.0,6.0,44,0.00,,,0.00,Weather View 32 v70,2013-07-04 21:00:00,
2013-07-04 17:15:00,87.3,61.9,0.00,West,278,3.0,6.0,43,0.00,,,0.00,Weather View 32 v70,2013-07-04 21:15:00,
2013-07-04 17:30:00,87.3,61.9,0.00,WSW,240,5.0,6.0,43,0.00,,,0.00,Weather View 32 v70,2013-07-04 21:30:00,
2013-07-04 17:45:00,88.0,61.2,0.00,West,264,3.0,7.0,41,0.00,,,0.00,Weather View 32 v70,2013-07-04 21:45:00,
2013-07-04 18:00:00,87.8,62.4,0.00,West,260,3.0,7.0,43,0.00,,,0.00,Weather View 32 v70,2013-07-04 22:00:00,
2013-07-04 18:15:00,87.4,62.1,0.00,South,174,0.0,7.0,43,0.00,,,0.00,Weather View 32 v70,2013-07-04 22:15:00,
2013-07-04 18:30:00,87.1,63.1,0.00,WSW,254,3.0,7.0,45,0.00,,,0.00,Weather View 32 v70,2013-07-04 22:30:00,
2013-07-04 18:45:00,86.4,63.7,0.00,WNW,292,3.0,7.0,47,0.00,,,0.00,Weather View 32 v70,2013-07-04 22:45:00,
2013-07-04 19:00:00,85.6,63.0,0.00,SSW,196,0.0,7.0,47,0.00,,,0.00,Weather View 32 v70,2013-07-04 23:00:00,
2013-07-04 19:15:00,84.9,63.6,0.00,SE,125,4.0,6.0,49,0.00,,,0.00,Weather View 32 v70,2013-07-04 23:15:00,
2013-07-04 19:30:00,84.4,63.6,0.00,WSW,253,0.0,6.0,50,0.00,,,0.00,Weather View 32 v70,2013-07-04 23:30:00,
2013-07-04 19:45:00,83.7,64.1,0.00,SW,220,2.0,6.0,52,0.00,,,0.00,Weather View 32 v70,2013-07-04 23:45:00,
2013-07-04 20:00:00,82.9,64.5,0.00,SW,220,0.0,5.0,54,0.00,,,0.00,Weather View 32 v70,2013-07-05 00:00:00,
2013-07-04 20:15:00,82.4,64.0,0.00,WSW,245,0.0,5.0,54,0.00,,,0.00,Weather View 32 v70,2013-07-05 00:15:00,
2013-07-04 20:30:00,81.9,64.6,0.00,SW,217,3.0,5.0,56,0.00,,,0.00,Weather View 32 v70,2013-07-05 00:30:00,
2013-07-04 20:45:00,81.3,64.6,0.00,SW,220,3.0,5.0,57,0.00,,,0.00,Weather View 32 v70,2013-07-05 00:45:00,
2013-07-04 21:00:00,81.0,64.7,0.00,SW,221,0.0,4.0,58,0.00,,,0.00,Weather View 32 v70,2013-07-05 01:00:00,
2013-07-04 21:15:00,80.6,64.4,0.00,ESE,104,0.0,4.0,58,0.00,,,0.00,Weather View 32 v70,2013-07-05 01:15:00,
2013-07-04 21:30:00,80.6,64.9,0.00,SW,236,0.0,4.0,59,0.00,,,0.00,Weather View 32 v70,2013-07-05 01:30:00,
2013-07-04 21:45:00,80.2,65.0,0.00,WSW,238,0.0,4.0,60,0.00,,,0.00,Weather View 32 v70,2013-07-05 01:45:00,
2013-07-04 22:00:00,80.1,64.9,0.00,South,190,0.0,4.0,60,0.00,,,0.00,Weather View 32 v70,2013-07-05 02:00:00,
2013-07-04 22:15:00,79.9,65.2,0.00,SSW,206,2.0,6.0,61,0.00,,,0.00,Weather View 32 v70,2013-07-05 02:15:00,
2013-07-04 22:30:00,79.3,65.1,0.00,WSW,245,0.0,6.0,62,0.00,,,0.00,Weather View 32 v70,2013-07-05 02:30:00,
2013-07-04 22:45:00,79.0,65.3,0.00,WSW,245,0.0,6.0,63,0.00,,,0.00,Weather View 32 v70,2013-07-05 02:45:00,
2013-07-04 23:00:00,78.6,65.8,0.00,WSW,245,0.0,6.0,65,0.00,,,0.00,Weather View 32 v70,2013-07-05 03:00:00,
2013-07-04 23:15:00,78.3,65.9,0.00,WSW,245,3.0,3.0,66,0.00,,,0.00,Weather View 32 v70,2013-07-05 03:15:00,
2013-07-04 23:30:00,77.9,66.0,0.00,WSW,237,2.0,4.0,67,0.00,,,0.00,Weather View 32 v70,2013-07-05 03:30:00,
2013-07-04 23:45:00,77.7,65.8,0.00,South,184,0.0,4.0,67,0.00,,,0.00,Weather View 32 v70,2013-07-05 03:45:00,